Time;durP1;ratioP1;P1;durP2;ratioP2;P2;SDS_P1;SDS_P2;PMS_P1;PMS_P2;Temp;Humidity;BMP_temperature;BMP_pressure;BME280_temperature;BME280_humidity;BME280_pressure;Samples;Min_cycle;Max_cycle;Signal;HPM_P1;HPM_P2
2021/01/15 00:00:08;;;;;;;2.42;1.27;;;1.20;99.90;;;;;;5016134;28;20030;-57
2021/01/15 00:02:34;;;;;;;4.82;1.30;;;1.10;99.90;;;;;;5015590;28;20029;-58
2021/01/15 00:05:00;;;;;;;2.92;1.50;;;1.10;99.90;;;;;;5015846;28;20026;-58
2021/01/15 00:07:30;;;;;;;3.60;1.77;;;1.10;99.90;;;;;;5016043;28;20076;-59
2021/01/15 00:09:56;;;;;;;6.00;1.50;;;1.10;99.90;;;;;;5015651;28;20041;-58
2021/01/15 00:12:22;;;;;;;4.85;1.75;;;1.10;99.90;;;;;;5015883;28;20033;-58
2021/01/15 00:14:48;;;;;;;3.33;1.58;;;1.20;99.90;;;;;;5014066;28;20080;-58
2021/01/15 00:17:14;;;;;;;4.35;1.58;;;1.10;99.90;;;;;;5015365;28;20062;-58
2021/01/15 00:19:40;;;;;;;8.90;1.95;;;1.10;99.90;;;;;;5015253;28;20469;-58
2021/01/15 00:22:06;;;;;;;3.53;1.60;;;1.10;99.90;;;;;;5015721;28;20030;-58
2021/01/15 00:24:32;;;;;;;4.35;1.67;;;1.00;99.90;;;;;;5015212;28;20034;-57
2021/01/15 00:26:58;;;;;;;3.10;1.50;;;1.00;99.90;;;;;;5015549;28;20072;-58
2021/01/15 00:29:24;;;;;;;3.83;2.15;;;1.00;99.90;;;;;;5015453;28;20030;-58
2021/01/15 00:31:50;;;;;;;5.53;1.90;;;1.00;99.90;;;;;;5014997;28;20060;-59
2021/01/15 00:34:17;;;;;;;2.88;1.67;;;1.00;99.90;;;;;;5015343;28;20034;-58
2021/01/15 00:36:46;;;;;;;4.25;1.67;;;0.90;99.90;;;;;;5014908;28;20034;-57
2021/01/15 00:39:14;;;;;;;6.43;1.80;;;1.00;99.90;;;;;;5014912;28;20045;-58
2021/01/15 00:41:44;;;;;;;2.63;1.73;;;1.00;99.90;;;;;;5015126;28;20109;-58
2021/01/15 00:44:11;;;;;;;4.65;2.28;;;0.90;99.90;;;;;;5015477;28;20080;-58
2021/01/15 00:46:48;;;;;;;4.95;2.45;;;0.90;99.90;;;;;;5014988;28;20033;-58
2021/01/15 00:49:15;;;;;;;4.07;1.90;;;0.90;99.90;;;;;;5014910;28;20034;-60
2021/01/15 00:51:50;;;;;;;7.28;2.03;;;0.80;99.90;;;;;;5013723;28;20066;-58
2021/01/15 00:54:17;;;;;;;4.13;2.15;;;0.80;99.90;;;;;;5014719;28;20034;-57
2021/01/15 00:56:43;;;;;;;7.20;2.25;;;0.80;99.90;;;;;;5014548;28;20030;-58
2021/01/15 00:59:09;;;;;;;5.00;2.15;;;0.80;99.90;;;;;;5015081;28;20064;-59
2021/01/15 01:01:38;;;;;;;5.30;1.83;;;0.70;99.90;;;;;;5014610;28;20022;-58
2021/01/15 01:04:05;;;;;;;6.82;2.35;;;0.70;99.90;;;;;;5014966;28;20034;-59
2021/01/15 01:06:32;;;;;;;4.13;2.05;;;0.70;99.90;;;;;;5013837;28;20030;-58
2021/01/15 01:09:02;;;;;;;4.15;2.15;;;0.70;99.90;;;;;;5014610;28;20038;-58
2021/01/15 01:11:31;;;;;;;3.45;2.20;;;0.60;99.90;;;;;;5013383;28;20089;-58
2021/01/15 01:13:58;;;;;;;4.10;2.38;;;0.40;99.90;;;;;;5014677;28;20092;-58
2021/01/15 01:16:25;;;;;;;3.67;1.90;;;0.40;99.90;;;;;;5014619;28;20114;-56
2021/01/15 01:18:52;;;;;;;3.60;1.77;;;0.30;99.90;;;;;;5014435;28;20037;-57
2021/01/15 01:21:20;;;;;;;4.18;2.13;;;0.10;99.90;;;;;;5014203;28;20125;-57
2021/01/15 01:23:47;;;;;;;4.78;2.15;;;0.00;99.90;;;;;;5013938;28;20034;-58
2021/01/15 01:26:14;;;;;;;6.80;2.28;;;-0.10;99.90;;;;;;5013878;28;20030;-57
2021/01/15 01:28:42;;;;;;;3.95;2.10;;;-0.30;99.90;;;;;;5014032;28;20030;-57
2021/01/15 01:31:13;;;;;;;4.72;2.28;;;-0.30;99.90;;;;;;5012959;28;20065;-56
2021/01/15 01:33:40;;;;;;;6.63;2.40;;;-0.40;99.90;;;;;;5013800;28;20079;-56
2021/01/15 01:36:07;;;;;;;8.98;2.88;;;-0.30;99.90;;;;;;5014111;28;20125;-56
2021/01/15 01:38:33;;;;;;;4.47;2.13;;;-0.30;99.90;;;;;;5013808;28;20076;-58
2021/01/15 01:40:59;;;;;;;6.57;2.22;;;-0.50;99.90;;;;;;5014234;28;20117;-59
2021/01/15 01:43:26;;;;;;;3.35;1.85;;;-0.60;99.90;;;;;;5014118;28;20197;-59
2021/01/15 01:45:53;;;;;;;4.57;2.20;;;-0.50;99.90;;;;;;5013882;28;20034;-58
2021/01/15 01:48:20;;;;;;;3.33;1.95;;;-0.50;99.90;;;;;;5012887;28;20040;-55
2021/01/15 01:50:47;;;;;;;6.93;2.15;;;-0.40;99.90;;;;;;5012558;28;20033;-57
2021/01/15 01:53:17;;;;;;;4.13;2.10;;;-0.40;99.90;;;;;;5012642;28;20040;-59
2021/01/15 01:55:45;;;;;;;3.17;2.00;;;-0.50;99.90;;;;;;5013530;28;20065;-58
2021/01/15 01:58:13;;;;;;;5.25;2.10;;;-0.60;99.90;;;;;;5013798;28;20088;-58
2021/01/15 02:00:42;;;;;;;6.25;2.00;;;-0.60;99.90;;;;;;5013618;28;20061;-57
2021/01/15 02:03:08;;;;;;;3.70;2.17;;;-0.50;99.90;;;;;;5012559;28;20037;-57
2021/01/15 02:05:35;;;;;;;6.18;2.30;;;-0.40;99.90;;;;;;5013081;28;20033;-58
2021/01/15 02:08:01;;;;;;;3.42;2.10;;;-0.40;99.90;;;;;;5013586;28;20470;-61
2021/01/15 02:10:40;;;;;;;5.40;1.92;;;-0.30;99.90;;;;;;5013547;28;20045;-58
2021/01/15 02:13:49;;;;;;;6.18;2.15;;;-0.40;99.90;;;;;;5013356;28;20068;-59
2021/01/15 02:16:27;;;;;;;3.38;2.03;;;-0.50;99.90;;;;;;4991694;28;20071;-56
2021/01/15 02:18:54;;;;;;;8.60;2.65;;;-0.60;99.90;;;;;;5010931;28;20113;-58
2021/01/15 02:21:58;;;;;;;4.53;2.38;;;-0.50;99.90;;;;;;5011717;28;20037;-58
2021/01/15 02:24:33;;;;;;;5.00;2.08;;;-0.40;99.90;;;;;;5013513;28;20040;-58
2021/01/15 02:27:19;;;;;;;6.18;2.05;;;-0.30;99.90;;;;;;5012897;28;20044;-58
2021/01/15 02:30:33;;;;;;;7.00;2.28;;;-0.30;99.90;;;;;;5013535;28;20034;-59
2021/01/15 02:33:21;;;;;;;5.32;2.10;;;-0.40;99.90;;;;;;4981746;28;20042;-56
2021/01/15 02:36:26;;;;;;;6.25;2.45;;;-0.50;99.90;;;;;;5011868;28;20040;-56
2021/01/15 02:39:11;;;;;;;5.13;2.28;;;-0.70;99.90;;;;;;5011698;28;20042;-59
2021/01/15 02:41:38;;;;;;;3.63;2.20;;;-0.70;99.90;;;;;;5012087;28;20026;-57
2021/01/15 02:44:06;;;;;;;3.40;2.03;;;-0.70;99.90;;;;;;5011727;28;20037;-59
2021/01/15 02:46:57;;;;;;;6.25;2.42;;;-0.70;99.90;;;;;;5011524;28;20025;-54
2021/01/15 02:49:23;;;;;;;5.68;2.47;;;-0.70;99.90;;;;;;5011532;28;20100;-58
2021/01/15 02:51:52;;;;;;;5.25;2.17;;;-0.60;99.90;;;;;;5012236;28;20133;-56
2021/01/15 02:54:18;;;;;;;4.88;2.28;;;-0.60;99.90;;;;;;5012189;28;20084;-58
2021/01/15 02:56:44;;;;;;;4.60;2.45;;;-0.60;99.90;;;;;;5012616;28;20033;-58
2021/01/15 02:59:09;;;;;;;4.45;2.25;;;-0.60;99.90;;;;;;5012652;28;20034;-58
2021/01/15 03:02:15;;;;;;;6.15;2.22;;;-0.60;99.90;;;;;;5012676;28;20041;-58
2021/01/15 03:04:54;;;;;;;5.05;2.35;;;-0.60;99.90;;;;;;4954833;28;20037;-58
2021/01/15 03:07:21;;;;;;;4.68;2.20;;;-0.60;99.90;;;;;;4955728;28;20114;-57
2021/01/15 03:09:49;;;;;;;4.63;2.20;;;-0.60;99.90;;;;;;4970659;28;20043;-57
2021/01/15 03:12:19;;;;;;;5.85;2.30;;;-0.60;99.90;;;;;;4955218;28;20066;-57
2021/01/15 03:14:47;;;;;;;3.75;2.00;;;-0.80;99.90;;;;;;4955170;28;20039;-57
2021/01/15 03:17:14;;;;;;;6.03;2.20;;;-0.80;99.90;;;;;;4970916;28;20039;-56
2021/01/15 03:19:40;;;;;;;5.25;2.72;;;-0.80;99.90;;;;;;4954936;28;20078;-57
2021/01/15 03:22:24;;;;;;;6.25;2.10;;;-0.80;99.90;;;;;;4954765;28;20049;-59
2021/01/15 03:24:55;;;;;;;4.47;2.05;;;-0.90;99.90;;;;;;4970794;28;20031;-56
2021/01/15 03:27:23;;;;;;;4.50;2.45;;;-0.90;99.90;;;;;;4970920;28;20090;-58
2021/01/15 03:29:50;;;;;;;6.35;2.83;;;-0.80;99.90;;;;;;4971356;28;20043;-57
2021/01/15 03:32:16;;;;;;;4.32;2.13;;;-0.90;99.90;;;;;;4974917;28;20030;-58
2021/01/15 03:34:43;;;;;;;6.00;2.00;;;-0.90;99.90;;;;;;4983675;28;20114;-59
2021/01/15 03:37:08;;;;;;;4.90;2.60;;;-1.00;99.90;;;;;;5016305;28;20056;-58
2021/01/15 03:39:35;;;;;;;3.88;2.53;;;-1.00;99.90;;;;;;5016256;28;20034;-56
2021/01/15 03:42:01;;;;;;;5.70;2.47;;;-1.00;99.90;;;;;;5016386;28;20094;-56
2021/01/15 03:44:27;;;;;;;5.75;2.70;;;-1.00;99.90;;;;;;5016119;28;20041;-58
2021/01/15 03:46:56;;;;;;;6.65;2.42;;;-1.00;99.90;;;;;;5016204;28;20036;-57
2021/01/15 03:49:23;;;;;;;5.60;2.60;;;-0.90;99.90;;;;;;5016225;28;20030;-58
2021/01/15 03:51:49;;;;;;;4.60;2.25;;;-0.90;99.90;;;;;;5016024;28;20026;-58
2021/01/15 03:54:15;;;;;;;6.38;2.65;;;-0.80;99.90;;;;;;5016156;28;20045;-54
2021/01/15 03:56:41;;;;;;;4.97;2.50;;;-0.80;99.90;;;;;;5016377;28;20371;-56
2021/01/15 03:59:07;;;;;;;5.22;2.08;;;-0.90;99.90;;;;;;5016049;28;20055;-56
2021/01/15 04:01:36;;;;;;;3.67;2.30;;;-0.90;99.90;;;;;;5015818;28;20117;-57
2021/01/15 04:04:04;;;;;;;5.47;2.80;;;-1.00;99.90;;;;;;5015791;28;20034;-57
2021/01/15 04:06:29;;;;;;;5.25;2.53;;;-1.00;99.90;;;;;;5015904;28;20038;-55
2021/01/15 04:08:55;;;;;;;4.57;2.25;;;-1.00;99.90;;;;;;5015961;28;20030;-59
2021/01/15 04:11:21;;;;;;;6.35;2.80;;;-1.00;99.90;;;;;;5015896;28;20025;-57
2021/01/15 04:13:47;;;;;;;6.68;2.90;;;-0.90;99.90;;;;;;5015637;28;20390;-58
2021/01/15 04:16:17;;;;;;;4.05;2.38;;;-1.10;99.90;;;;;;5015805;28;20154;-57
2021/01/15 04:18:43;;;;;;;6.15;2.70;;;-1.20;99.90;;;;;;5015492;28;20034;-57
2021/01/15 04:21:14;;;;;;;5.90;2.88;;;-1.40;99.90;;;;;;5015652;28;20022;-58
2021/01/15 04:23:42;;;;;;;8.10;3.25;;;-1.40;99.90;;;;;;5014663;28;20028;-58
2021/01/15 04:26:08;;;;;;;8.52;2.85;;;-1.40;99.90;;;;;;5015234;28;20069;-58
2021/01/15 04:28:36;;;;;;;9.23;2.88;;;-1.40;99.90;;;;;;5015597;28;20033;-58
2021/01/15 04:31:02;;;;;;;6.68;2.70;;;-1.40;99.90;;;;;;5015406;28;20041;-55
2021/01/15 04:33:34;;;;;;;6.80;2.80;;;-1.40;99.90;;;;;;5015319;28;20041;-57
2021/01/15 04:36:00;;;;;;;7.45;3.53;;;-1.40;99.90;;;;;;5015318;28;20037;-56
2021/01/15 04:38:26;;;;;;;10.90;2.80;;;-1.30;99.90;;;;;;5014879;28;20057;-59
2021/01/15 04:40:58;;;;;;;9.02;3.47;;;-1.30;99.90;;;;;;5015064;28;20022;-57
2021/01/15 04:43:28;;;;;;;9.68;3.03;;;-1.40;99.90;;;;;;5014507;28;20026;-57
2021/01/15 04:45:55;;;;;;;7.78;2.80;;;-1.40;99.90;;;;;;5015036;28;20034;-57
2021/01/15 04:48:21;;;;;;;7.50;2.92;;;-1.40;99.90;;;;;;5014629;28;20034;-55
2021/01/15 04:50:50;;;;;;;8.20;2.80;;;-1.30;99.90;;;;;;5014688;28;20034;-55
2021/01/15 04:53:24;;;;;;;9.60;2.95;;;-1.30;99.90;;;;;;5014413;28;20033;-57
2021/01/15 04:55:56;;;;;;;8.18;2.90;;;-1.20;99.90;;;;;;5013627;28;20041;-57
2021/01/15 04:58:23;;;;;;;5.95;3.38;;;-1.30;99.90;;;;;;5013702;28;20030;-59
2021/01/15 05:00:57;;;;;;;7.00;3.00;;;-1.30;99.90;;;;;;5013622;28;20049;-60
2021/01/15 05:03:25;;;;;;;7.05;3.03;;;-1.30;99.90;;;;;;5014704;28;20038;-58
2021/01/15 05:06:07;;;;;;;8.57;3.13;;;-1.20;99.90;;;;;;5014686;28;20030;-59
2021/01/15 05:08:37;;;;;;;9.35;3.22;;;-1.20;99.90;;;;;;5013600;28;20042;-58
2021/01/15 05:11:04;;;;;;;6.43;3.15;;;-1.20;99.90;;;;;;5014685;28;20120;-58
2021/01/15 05:13:36;;;;;;;8.45;3.28;;;-1.20;99.90;;;;;;5014681;28;20099;-58
2021/01/15 05:16:03;;;;;;;7.32;3.10;;;-1.30;99.90;;;;;;5014564;28;20071;-58
2021/01/15 05:18:35;;;;;;;8.02;2.78;;;-1.30;99.90;;;;;;5014333;28;20034;-58
2021/01/15 05:21:01;;;;;;;8.52;3.05;;;-1.30;99.90;;;;;;5014404;28;20030;-50
2021/01/15 05:23:27;;;;;;;5.32;3.08;;;-1.30;99.90;;;;;;5014635;28;20117;-57
2021/01/15 05:25:52;;;;;;;5.97;2.65;;;-1.20;99.90;;;;;;5012906;28;20033;-57
2021/01/15 05:28:21;;;;;;;7.75;2.90;;;-1.20;99.90;;;;;;5013972;28;20406;-56
2021/01/15 05:30:59;;;;;;;6.70;3.50;;;-1.20;99.90;;;;;;5014331;28;20095;-57
2021/01/15 05:33:25;;;;;;;8.55;3.13;;;-1.20;99.90;;;;;;5013947;28;20034;-57
2021/01/15 05:35:52;;;;;;;5.70;3.50;;;-1.20;99.90;;;;;;5013993;28;20091;-56
2021/01/15 05:38:22;;;;;;;7.85;3.03;;;-1.20;99.90;;;;;;5013790;28;20050;-56
2021/01/15 05:40:51;;;;;;;7.00;3.17;;;-1.20;99.90;;;;;;5014063;28;20045;-56
2021/01/15 05:43:33;;;;;;;10.57;3.47;;;-1.10;99.90;;;;;;5014040;28;20045;-58
2021/01/15 05:46:18;;;;;;;8.75;3.75;;;-1.00;99.90;;;;;;5013930;28;20092;-57
2021/01/15 05:48:53;;;;;;;7.72;3.55;;;-1.00;99.90;;;;;;5013767;28;20036;-53
2021/01/15 05:51:34;;;;;;;6.72;3.70;;;-0.80;99.90;;;;;;5013503;28;20049;-57
2021/01/15 05:54:03;;;;;;;8.23;4.07;;;-0.80;99.90;;;;;;5013240;28;20044;-57
2021/01/15 05:56:44;;;;;;;8.85;3.85;;;-0.80;99.90;;;;;;5013577;28;20291;-55
2021/01/15 05:59:12;;;;;;;6.65;3.20;;;-0.70;99.90;;;;;;5013767;28;20030;-55
2021/01/15 06:01:55;;;;;;;10.05;3.83;;;-0.70;99.90;;;;;;5013420;28;20084;-53
2021/01/15 06:04:35;;;;;;;7.15;3.63;;;-0.70;99.90;;;;;;5013375;28;20038;-56
2021/01/15 06:07:13;;;;;;;6.45;3.75;;;-0.60;99.90;;;;;;5013187;28;20042;-54
2021/01/15 06:09:41;;;;;;;8.75;3.75;;;-0.70;99.90;;;;;;5013668;28;20041;-50
2021/01/15 06:12:12;;;;;;;7.85;4.00;;;-0.70;99.90;;;;;;5013436;28;20040;-50
2021/01/15 06:17:40;;;;;;;9.27;3.70;;;-0.60;99.90;;;;;;5000971;28;20037;-54
2021/01/15 06:20:07;;;;;;;10.43;4.53;;;-0.60;99.90;;;;;;5011879;28;20048;-56
2021/01/15 06:22:44;;;;;;;12.43;3.67;;;-0.60;99.90;;;;;;5012242;28;20026;-55
2021/01/15 06:25:34;;;;;;;8.68;3.90;;;-0.60;99.90;;;;;;5013152;28;20029;-55
2021/01/15 06:28:04;;;;;;;8.70;3.90;;;-0.60;99.90;;;;;;5012528;28;20084;-56
2021/01/15 06:30:36;;;;;;;8.48;4.13;;;-0.60;99.90;;;;;;5013269;28;20136;-57
2021/01/15 06:33:15;;;;;;;6.90;3.65;;;-0.60;99.90;;;;;;5012897;28;20133;-56
2021/01/15 06:35:44;;;;;;;6.55;3.80;;;-0.50;99.90;;;;;;5012903;28;20064;-54
2021/01/15 06:38:13;;;;;;;10.02;4.40;;;-0.50;99.90;;;;;;5012625;28;20050;-56
2021/01/15 06:40:48;;;;;;;7.75;3.50;;;-0.60;99.90;;;;;;5013050;28;20040;-54
2021/01/15 06:43:31;;;;;;;10.23;4.03;;;-0.70;99.90;;;;;;5013011;28;20088;-56
2021/01/15 06:46:00;;;;;;;9.70;4.00;;;-0.70;99.90;;;;;;5012924;28;20029;-56
2021/01/15 06:48:25;;;;;;;10.73;4.47;;;-0.70;99.90;;;;;;5012602;28;20080;-56
2021/01/15 06:50:58;;;;;;;9.70;4.15;;;-0.80;99.90;;;;;;5011358;28;20033;-58
2021/01/15 06:53:38;;;;;;;11.90;4.93;;;-0.60;99.90;;;;;;5012146;28;20025;-57
2021/01/15 06:56:06;;;;;;;11.80;4.18;;;-0.60;99.90;;;;;;5012154;28;20121;-55
2021/01/15 06:58:43;;;;;;;8.23;3.80;;;-0.60;99.90;;;;;;5010559;28;20092;-57
2021/01/15 07:01:26;;;;;;;8.50;4.47;;;-0.60;99.90;;;;;;5010845;28;20038;-53
2021/01/15 07:04:19;;;;;;;11.75;4.53;;;-0.50;99.90;;;;;;5010041;28;20037;-50
2021/01/15 07:06:56;;;;;;;10.75;4.20;;;-0.40;99.90;;;;;;5010019;28;20037;-56
2021/01/15 07:09:29;;;;;;;8.00;3.83;;;-0.40;99.90;;;;;;5010119;28;20030;-56
2021/01/15 07:11:56;;;;;;;12.07;3.78;;;-0.40;99.90;;;;;;5010900;28;20026;-54
2021/01/15 07:14:27;;;;;;;8.80;3.85;;;-0.30;99.90;;;;;;5011068;28;20038;-57
2021/01/15 07:16:56;;;;;;;10.93;4.70;;;-0.30;99.90;;;;;;5011794;28;20092;-55
2021/01/15 07:19:37;;;;;;;19.92;7.95;;;-0.20;99.90;;;;;;5012562;28;20100;-57
2021/01/15 07:22:03;;;;;;;10.07;4.32;;;-0.20;99.90;;;;;;5012203;28;20063;-57
2021/01/15 07:24:33;;;;;;;8.60;3.72;;;-0.30;99.90;;;;;;5012494;28;20045;-53
2021/01/15 07:27:00;;;;;;;8.68;4.32;;;-0.40;99.90;;;;;;5012187;28;20038;-57
2021/01/15 07:29:30;;;;;;;8.50;4.00;;;-0.60;99.90;;;;;;5012138;28;20040;-57
2021/01/15 07:32:14;;;;;;;10.65;4.75;;;-0.60;99.90;;;;;;5010972;28;20052;-52
2021/01/15 07:34:54;;;;;;;8.80;4.00;;;-0.60;99.90;;;;;;5011164;28;20042;-56
2021/01/15 07:37:22;;;;;;;9.98;4.40;;;-0.60;99.90;;;;;;5012003;28;20073;-57
2021/01/15 07:40:20;;;;;;;10.95;4.13;;;-0.70;99.90;;;;;;5012502;28;20038;-56
2021/01/15 07:42:52;;;;;;;10.15;4.20;;;-0.60;99.90;;;;;;5011818;28;20088;-56
2021/01/15 07:45:24;;;;;;;8.68;4.50;;;-0.60;99.90;;;;;;5012236;28;20125;-56
2021/01/15 07:48:14;;;;;;;9.40;3.90;;;-0.50;99.90;;;;;;5012435;28;20040;-56
2021/01/15 07:50:44;;;;;;;10.47;4.60;;;-0.50;99.90;;;;;;5011822;28;20034;-57
2021/01/15 07:53:15;;;;;;;7.95;4.25;;;-0.60;99.90;;;;;;5011967;28;20295;-57
2021/01/15 07:55:51;;;;;;;6.97;3.85;;;-0.60;99.90;;;;;;5012105;28;20121;-55
2021/01/15 07:58:37;;;;;;;11.07;4.97;;;-0.70;99.90;;;;;;5010524;28;20037;-58
2021/01/15 08:01:11;;;;;;;16.48;6.10;;;-0.60;99.90;;;;;;5011650;28;20037;-55
2021/01/15 08:03:57;;;;;;;11.93;5.15;;;-0.60;99.90;;;;;;5012124;28;20037;-58
2021/01/15 08:06:25;;;;;;;9.52;4.78;;;-0.60;99.90;;;;;;5011962;28;20065;-57
2021/01/15 08:09:02;;;;;;;8.70;4.60;;;-0.60;99.90;;;;;;5011968;28;20034;-57
2021/01/15 08:11:34;;;;;;;10.02;5.00;;;-0.60;99.90;;;;;;5012061;28;20030;-61
2021/01/15 08:14:20;;;;;;;8.38;4.32;;;-0.60;99.90;;;;;;5011609;28;20387;-57
2021/01/15 08:16:48;;;;;;;9.80;4.38;;;-0.60;99.90;;;;;;5014069;28;20061;-54
2021/01/15 08:19:17;;;;;;;8.77;4.38;;;-0.60;99.90;;;;;;5015445;28;20081;-56
2021/01/15 08:21:45;;;;;;;9.73;3.97;;;-0.50;99.90;;;;;;5015216;28;20030;-56
2021/01/15 08:24:13;;;;;;;9.90;4.60;;;-0.40;99.90;;;;;;5015437;28;20041;-57
2021/01/15 08:26:53;;;;;;;10.73;4.45;;;-0.40;99.90;;;;;;5015246;28;20030;-57
2021/01/15 08:29:21;;;;;;;7.80;4.00;;;-0.40;99.90;;;;;;5015071;28;20033;-57
2021/01/15 08:31:49;;;;;;;8.57;4.20;;;-0.60;99.90;;;;;;5014792;28;20045;-56
2021/01/15 08:34:21;;;;;;;11.15;4.60;;;-0.60;99.90;;;;;;5014581;28;20089;-57
2021/01/15 08:36:56;;;;;;;14.77;4.90;;;-0.50;99.90;;;;;;5014953;28;20122;-56
2021/01/15 08:39:22;;;;;;;11.70;5.55;;;-0.40;99.90;;;;;;5013968;28;20033;-57
2021/01/15 08:41:58;;;;;;;13.98;5.80;;;-0.20;99.90;;;;;;5014947;28;20195;-57
2021/01/15 08:44:25;;;;;;;10.77;5.07;;;-0.10;99.90;;;;;;5013460;28;20069;-58
2021/01/15 08:46:52;;;;;;;9.05;4.97;;;-0.10;99.90;;;;;;5014591;28;20108;-57
2021/01/15 08:49:18;;;;;;;9.43;4.13;;;0.10;99.90;;;;;;5014734;28;20072;-57
2021/01/15 08:51:50;;;;;;;10.48;5.22;;;0.20;99.90;;;;;;5014622;28;20038;-57
2021/01/15 08:54:18;;;;;;;7.93;4.43;;;0.20;99.90;;;;;;5014577;28;20041;-56
2021/01/15 08:56:50;;;;;;;8.18;4.63;;;0.30;99.90;;;;;;5013699;28;20030;-55
2021/01/15 08:59:31;;;;;;;7.68;3.90;;;0.30;99.90;;;;;;5014342;28;20092;-54
2021/01/15 09:02:04;;;;;;;12.57;5.30;;;0.40;99.90;;;;;;5014832;28;20558;-56
2021/01/15 09:04:34;;;;;;;8.50;4.22;;;0.40;99.90;;;;;;5014495;28;20069;-57
2021/01/15 09:07:04;;;;;;;9.02;4.85;;;0.40;99.90;;;;;;5014202;28;20038;-54
2021/01/15 09:09:32;;;;;;;8.38;4.35;;;0.50;99.90;;;;;;5011176;28;20026;-57
2021/01/15 09:12:08;;;;;;;9.32;3.92;;;0.60;99.90;;;;;;5013228;28;20038;-56
2021/01/15 09:14:38;;;;;;;7.10;3.92;;;0.70;99.90;;;;;;5014253;28;20084;-55
2021/01/15 09:17:07;;;;;;;8.13;3.95;;;0.60;99.90;;;;;;5013246;28;20054;-58
2021/01/15 09:19:34;;;;;;;9.65;4.00;;;0.60;99.90;;;;;;5014582;28;20034;-55
2021/01/15 09:22:08;;;;;;;9.95;4.55;;;0.70;99.90;;;;;;5014016;28;20034;-56
2021/01/15 09:24:36;;;;;;;11.57;4.18;;;0.80;99.90;;;;;;5014381;28;20048;-56
2021/01/15 09:27:08;;;;;;;7.97;4.20;;;0.90;99.90;;;;;;5014248;28;20026;-53
2021/01/15 09:29:35;;;;;;;7.90;4.25;;;1.00;99.90;;;;;;5013728;28;20033;-56
2021/01/15 09:32:04;;;;;;;9.05;4.32;;;0.90;99.90;;;;;;5013880;28;20041;-55
2021/01/15 09:34:31;;;;;;;7.97;4.18;;;1.00;99.90;;;;;;5013871;28;20045;-56
2021/01/15 09:36:58;;;;;;;10.57;4.47;;;1.10;99.90;;;;;;5014007;28;20045;-56
2021/01/15 09:39:27;;;;;;;8.90;4.00;;;1.20;99.90;;;;;;5014046;28;20037;-56
2021/01/15 09:41:56;;;;;;;11.77;4.90;;;1.30;99.90;;;;;;5014227;28;20073;-55
2021/01/15 09:44:26;;;;;;;11.18;4.15;;;1.30;99.90;;;;;;5013506;28;20120;-55
2021/01/15 09:47:01;;;;;;;11.23;4.50;;;1.50;99.90;;;;;;5014081;28;20030;-56
2021/01/15 09:49:31;;;;;;;7.75;4.05;;;1.60;99.90;;;;;;5013528;28;20037;-55
2021/01/15 09:51:57;;;;;;;7.07;3.72;;;1.60;99.90;;;;;;5013935;28;20025;-56
2021/01/15 09:54:23;;;;;;;9.82;4.03;;;1.40;99.90;;;;;;5013683;28;20065;-57
2021/01/15 09:56:49;;;;;;;7.55;3.83;;;1.70;99.90;;;;;;5013875;28;20107;-57
2021/01/15 09:59:17;;;;;;;9.38;5.03;;;1.60;99.90;;;;;;5013681;28;20037;-57
2021/01/15 10:01:47;;;;;;;9.23;4.25;;;1.90;99.90;;;;;;5013410;28;20045;-55
2021/01/15 10:04:14;;;;;;;9.48;4.30;;;2.20;99.90;;;;;;5013617;28;20033;-56
2021/01/15 10:06:42;;;;;;;7.20;3.92;;;2.90;99.90;;;;;;5012344;28;20033;-57
2021/01/15 10:09:13;;;;;;;9.73;4.38;;;5.30;99.90;;;;;;5013485;28;20032;-57
2021/01/15 10:11:45;;;;;;;7.18;3.95;;;7.60;94.60;;;;;;5013296;28;20042;-56
2021/01/15 10:14:14;;;;;;;6.53;3.50;;;9.70;87.50;;;;;;5013254;28;20037;-56
2021/01/15 10:16:47;;;;;;;7.82;3.95;;;10.70;74.90;;;;;;5013324;28;20133;-57
2021/01/15 10:19:13;;;;;;;6.32;3.10;;;10.80;71.70;;;;;;5011565;28;20041;-58
2021/01/15 10:21:43;;;;;;;6.63;3.17;;;11.40;69.10;;;;;;5012392;28;20052;-58
2021/01/15 10:24:10;;;;;;;9.27;3.80;;;11.30;65.80;;;;;;5012651;28;20030;-57
2021/01/15 10:26:38;;;;;;;8.32;3.10;;;12.50;61.10;;;;;;5012562;28;20033;-57
2021/01/15 10:29:13;;;;;;;7.38;3.20;;;13.50;58.90;;;;;;5013025;28;20038;-57
2021/01/15 10:31:50;;;;;;;7.45;3.30;;;14.00;55.30;;;;;;5012699;28;20033;-55
2021/01/15 10:34:20;;;;;;;3.92;2.78;;;15.30;51.80;;;;;;5027340;28;20030;-58
2021/01/15 10:36:47;;;;;;;10.15;2.40;;;15.50;50.50;;;;;;5012777;28;20034;-57
2021/01/15 10:39:14;;;;;;;5.47;2.45;;;15.70;49.20;;;;;;5012340;28;20042;-57
2021/01/15 10:41:46;;;;;;;6.53;2.28;;;14.50;49.50;;;;;;5011689;28;20037;-57
2021/01/15 10:44:16;;;;;;;8.15;2.45;;;15.60;48.60;;;;;;5012572;28;20058;-58
2021/01/15 10:46:46;;;;;;;5.07;2.60;;;14.50;50.10;;;;;;5012946;28;20037;-57
2021/01/15 10:49:17;;;;;;;5.85;2.83;;;13.50;50.00;;;;;;5012631;28;20029;-59
2021/01/15 10:51:45;;;;;;;5.20;2.53;;;10.80;55.80;;;;;;5012243;28;20033;-59
2021/01/15 10:54:12;;;;;;;6.32;2.72;;;13.00;53.40;;;;;;5012178;28;20092;-60
2021/01/15 10:56:50;;;;;;;6.45;2.85;;;9.50;55.70;;;;;;5012558;28;20121;-58
2021/01/15 10:59:16;;;;;;;4.53;2.28;;;11.40;56.00;;;;;;5012357;28;20105;-56
2021/01/15 11:01:51;;;;;;;4.60;2.38;;;9.30;61.30;;;;;;5012624;28;20129;-56
2021/01/15 11:04:19;;;;;;;5.75;2.88;;;12.40;55.30;;;;;;5012432;28;20080;-59
2021/01/15 11:06:52;;;;;;;4.65;2.38;;;9.00;57.70;;;;;;5012284;28;20042;-57
2021/01/15 11:09:19;;;;;;;8.25;3.42;;;7.20;70.30;;;;;;5012500;28;20113;-58
2021/01/15 11:11:46;;;;;;;4.78;2.35;;;9.30;65.80;;;;;;5012333;28;20030;-58
2021/01/15 11:14:19;;;;;;;5.00;2.53;;;8.40;63.00;;;;;;5012366;28;20072;-58
2021/01/15 11:16:46;;;;;;;6.00;2.58;;;8.90;67.30;;;;;;5012437;28;20026;-57
2021/01/15 11:19:13;;;;;;;4.38;2.40;;;11.40;60.50;;;;;;5012303;28;20106;-59
2021/01/15 11:21:40;;;;;;;5.53;2.53;;;14.30;53.20;;;;;;5012336;28;20114;-58
2021/01/15 11:24:10;;;;;;;5.47;2.55;;;14.40;49.60;;;;;;5012098;28;20026;-58
2021/01/15 11:26:37;;;;;;;8.70;4.40;;;8.30;61.40;;;;;;5012405;28;20030;-58
2021/01/15 11:29:07;;;;;;;12.88;4.18;;;12.10;58.60;;;;;;5011859;28;20042;-57
2021/01/15 11:31:34;;;;;;;4.72;2.45;;;12.60;55.60;;;;;;5010709;28;20041;-58
2021/01/15 11:34:00;;;;;;;6.05;2.72;;;12.00;54.80;;;;;;5012167;28;20042;-61
2021/01/15 11:36:30;;;;;;;6.97;2.33;;;13.70;51.80;;;;;;5011811;28;20087;-59
2021/01/15 11:38:59;;;;;;;4.43;2.42;;;13.30;50.30;;;;;;5011971;28;20068;-59
2021/01/15 11:41:26;;;;;;;4.95;2.28;;;13.20;51.90;;;;;;5011962;28;20113;-58
2021/01/15 11:43:52;;;;;;;5.90;2.65;;;13.50;50.70;;;;;;5012253;28;20113;-58
2021/01/15 11:46:18;;;;;;;5.53;2.65;;;11.50;54.70;;;;;;5011890;28;20030;-56
2021/01/15 11:48:44;;;;;;;6.22;2.80;;;12.60;51.20;;;;;;5011657;28;20026;-58
2021/01/15 11:51:10;;;;;;;5.90;2.83;;;11.40;51.70;;;;;;5012974;28;20038;-59
2021/01/15 11:53:38;;;;;;;4.63;2.58;;;14.30;51.50;;;;;;5015470;28;20036;-57
2021/01/15 11:56:06;;;;;;;8.57;3.60;;;13.30;50.90;;;;;;5015766;28;20030;-60
2021/01/15 11:58:33;;;;;;;4.93;2.85;;;14.30;47.80;;;;;;5014221;28;20049;-58
2021/01/15 12:01:00;;;;;;;5.85;3.13;;;14.00;51.10;;;;;;5014590;28;20045;-57
2021/01/15 12:03:26;;;;;;;5.93;2.67;;;15.80;47.90;;;;;;5015695;28;20116;-57
2021/01/15 12:05:53;;;;;;;12.48;3.20;;;15.80;46.60;;;;;;5015434;28;20474;-58
2021/01/15 12:08:21;;;;;;;10.80;5.00;;;14.20;46.10;;;;;;5015327;28;20045;-58
2021/01/15 12:10:56;;;;;;;7.97;3.28;;;12.60;50.70;;;;;;5015430;28;20088;-58
2021/01/15 12:13:23;;;;;;;7.10;2.67;;;11.60;53.50;;;;;;5015195;28;20040;-57
2021/01/15 12:15:54;;;;;;;7.90;3.60;;;11.10;54.70;;;;;;5015488;28;20033;-58
2021/01/15 12:18:21;;;;;;;11.70;3.50;;;11.20;55.80;;;;;;5015491;28;20025;-56
2021/01/15 12:20:47;;;;;;;7.15;3.88;;;10.60;56.80;;;;;;5015177;28;20076;-57
2021/01/15 12:23:15;;;;;;;7.47;3.95;;;9.40;58.80;;;;;;5015424;28;20033;-57
2021/01/15 12:25:41;;;;;;;6.85;3.50;;;8.80;62.80;;;;;;5015148;28;20034;-58
2021/01/15 12:28:14;;;;;;;9.10;3.30;;;8.80;61.40;;;;;;5015092;28;20030;-57
2021/01/15 12:30:42;;;;;;;6.35;3.15;;;9.60;61.90;;;;;;5015477;28;20034;-57
2021/01/15 12:33:16;;;;;;;6.93;3.30;;;10.80;59.10;;;;;;5015254;28;20117;-58
2021/01/15 12:35:48;;;;;;;9.00;3.20;;;10.90;57.40;;;;;;5014941;28;20073;-55
2021/01/15 12:38:23;;;;;;;6.72;3.63;;;11.90;55.90;;;;;;5014710;28;20041;-57
2021/01/15 12:40:53;;;;;;;7.07;3.67;;;11.60;55.20;;;;;;5013719;28;20037;-58
2021/01/15 12:43:20;;;;;;;9.35;3.72;;;11.80;55.70;;;;;;5014559;28;20029;-58
2021/01/15 12:45:49;;;;;;;6.63;3.60;;;12.00;55.60;;;;;;5014786;28;20026;-58
2021/01/15 12:48:16;;;;;;;7.78;4.15;;;10.30;57.00;;;;;;5015000;28;20034;-58
2021/01/15 12:50:44;;;;;;;10.50;4.85;;;10.20;59.50;;;;;;5014524;28;20068;-58
2021/01/15 12:53:10;;;;;;;9.68;4.05;;;9.50;61.80;;;;;;5014817;28;20049;-59
2021/01/15 12:55:38;;;;;;;9.68;4.07;;;10.10;61.20;;;;;;5014731;28;20073;-58
2021/01/15 12:58:05;;;;;;;8.38;3.97;;;11.00;59.20;;;;;;5014541;28;20129;-59
2021/01/15 13:00:31;;;;;;;7.15;3.83;;;11.90;57.30;;;;;;5014810;28;20030;-58
2021/01/15 13:02:58;;;;;;;6.60;3.90;;;12.20;56.30;;;;;;5013335;28;20044;-58
2021/01/15 13:05:24;;;;;;;9.45;4.40;;;13.00;54.70;;;;;;5014162;28;20137;-56
2021/01/15 13:07:51;;;;;;;11.48;3.95;;;13.40;53.60;;;;;;5014725;28;20037;-58